Time;durP1;ratioP1;P1;durP2;ratioP2;P2;SDS_P1;SDS_P2;PMS_P1;PMS_P2;Temp;Humidity;BMP_temperature;BMP_pressure;BME280_temperature;BME280_humidity;BME280_pressure;Samples;Min_cycle;Max_cycle;Signal;HPM_P1;HPM_P2
2022/08/19 00:01:45;;;;;;;13.70;5.60;;;;;;;24.38;60.02;99584.30;106308;1268;22544;-66
2022/08/19 00:04:19;;;;;;;15.60;6.60;;;;;;;24.36;60.21;99583.00;106174;1268;25310;-66
2022/08/19 00:06:51;;;;;;;12.90;5.20;;;;;;;24.34;60.31;99582.15;106055;1268;25293;-66
2022/08/19 00:09:25;;;;;;;13.80;5.30;;;;;;;24.31;60.22;99584.20;106078;1268;24230;-65
2022/08/19 00:11:57;;;;;;;10.90;5.10;;;;;;;24.30;60.39;99583.39;106189;1268;22549;-67
2022/08/19 00:14:32;;;;;;;13.00;4.90;;;;;;;24.29;60.27;99578.58;106269;1268;26330;-67
2022/08/19 00:17:04;;;;;;;15.00;7.30;;;;;;;24.27;60.56;99567.27;106203;1268;22560;-66
2022/08/19 00:19:37;;;;;;;12.30;4.90;;;;;;;24.23;60.44;99558.91;106086;1268;24279;-65
2022/08/19 00:22:09;;;;;;;12.80;5.30;;;;;;;24.21;60.63;99558.98;106184;1267;22540;-65
2022/08/19 00:24:43;;;;;;;12.90;5.00;;;;;;;24.19;60.60;99549.70;106082;1268;22543;-66
2022/08/19 00:27:15;;;;;;;11.60;4.80;;;;;;;24.15;60.61;99548.08;106219;1268;22525;-65
2022/08/19 00:29:47;;;;;;;11.70;5.10;;;;;;;24.12;60.84;99540.97;106095;1268;22530;-66
2022/08/19 00:32:20;;;;;;;11.10;4.80;;;;;;;24.08;60.83;99540.52;106130;1268;24347;-66
2022/08/19 00:34:52;;;;;;;15.50;6.50;;;;;;;24.04;60.85;99537.48;106727;1261;25417;-49
2022/08/19 00:37:26;;;;;;;13.10;5.00;;;;;;;24.01;61.02;99531.23;105979;1270;24080;-51
2022/08/19 00:39:59;;;;;;;14.00;6.00;;;;;;;23.97;61.14;99529.21;105961;1271;22754;-50
2022/08/19 00:42:31;;;;;;;15.50;5.10;;;;;;;23.95;61.21;99531.30;106031;1268;24364;-50
2022/08/19 00:45:03;;;;;;;13.30;5.50;;;;;;;23.93;61.16;99530.04;108602;1270;24370;-50
2022/08/19 00:47:34;;;;;;;10.80;4.70;;;;;;;23.91;61.21;99530.13;109826;1269;22446;-54
2022/08/19 00:50:08;;;;;;;10.70;4.70;;;;;;;23.88;61.17;99531.27;109852;1269;22513;-54
2022/08/19 00:52:45;;;;;;;11.90;5.00;;;;;;;23.84;61.20;99529.73;109839;1269;22462;-54
2022/08/19 00:55:19;;;;;;;10.20;4.20;;;;;;;23.82;61.41;99526.38;109860;1269;22412;-51
2022/08/19 00:57:57;;;;;;;12.20;4.80;;;;;;;23.77;61.46;99528.44;107313;1269;22701;-54
2022/08/19 01:00:32;;;;;;;13.20;4.80;;;;;;;23.74;61.65;99530.20;106096;1271;25198;-53
2022/08/19 01:03:04;;;;;;;13.00;5.30;;;;;;;23.72;61.63;99538.54;106227;1271;25311;-49
2022/08/19 01:05:36;;;;;;;10.60;4.80;;;;;;;23.68;61.73;99547.77;106117;1270;22692;-50
2022/08/19 01:08:10;;;;;;;10.50;4.80;;;;;;;23.64;62.03;99551.70;106072;1271;22707;-51
2022/08/19 01:10:46;;;;;;;13.60;5.60;;;;;;;23.61;62.19;99543.21;106048;1270;26571;-50
2022/08/19 01:13:20;;;;;;;11.30;4.60;;;;;;;23.60;62.25;99528.98;106167;1269;22528;-51
2022/08/19 01:16:01;;;;;;;13.40;5.40;;;;;;;23.58;62.23;99532.99;106096;1268;24374;-51
2022/08/19 01:18:37;;;;;;;11.70;5.20;;;;;;;23.57;62.28;99536.44;106095;1270;25236;-51
2022/08/19 01:21:20;;;;;;;13.80;6.20;;;;;;;23.56;62.69;99535.19;106110;1271;22590;-50
2022/08/19 01:23:52;;;;;;;13.40;5.00;;;;;;;23.54;62.88;99518.98;106210;1270;22535;-50
2022/08/19 01:26:25;;;;;;;12.70;5.40;;;;;;;23.54;62.63;99509.11;106173;1270;25343;-54
2022/08/19 01:29:00;;;;;;;12.10;4.70;;;;;;;23.50;62.79;99493.66;106205;1271;22635;-50
2022/08/19 01:31:32;;;;;;;11.70;4.70;;;;;;;23.45;62.90;99479.55;106248;1270;24395;-51
2022/08/19 01:34:04;;;;;;;11.20;4.80;;;;;;;23.39;63.17;99476.08;106272;1269;24427;-49
2022/08/19 01:36:38;;;;;;;11.20;4.50;;;;;;;23.33;63.17;99478.00;106213;1271;24387;-50
2022/08/19 01:39:12;;;;;;;12.60;5.10;;;;;;;23.27;63.36;99487.95;106204;1270;22703;-52
2022/08/19 01:41:44;;;;;;;11.50;5.00;;;;;;;23.25;63.65;99487.20;106151;1271;24263;-52
2022/08/19 01:44:16;;;;;;;13.20;6.20;;;;;;;23.23;63.72;99480.51;105967;1270;22789;-54
2022/08/19 01:46:49;;;;;;;13.00;5.40;;;;;;;23.21;63.85;99477.92;106162;1271;22550;-52
2022/08/19 01:49:22;;;;;;;15.00;5.20;;;;;;;23.20;63.85;99480.37;106217;1271;24074;-52
2022/08/19 01:51:55;;;;;;;21.20;5.80;;;;;;;23.19;64.07;99481.17;106147;1270;26473;-50
2022/08/19 01:54:27;;;;;;;15.00;5.90;;;;;;;23.17;64.22;99473.17;105991;1270;22853;-53
2022/08/19 01:57:04;;;;;;;12.80;5.50;;;;;;;23.13;64.17;99470.40;106051;1270;25232;-52
2022/08/19 01:59:37;;;;;;;13.30;5.10;;;;;;;23.08;64.41;99473.83;106247;1270;22699;-53
2022/08/19 02:02:09;;;;;;;12.00;5.60;;;;;;;23.03;64.54;99471.34;105973;1271;22613;-52
2022/08/19 02:04:41;;;;;;;12.80;5.00;;;;;;;22.97;64.61;99469.16;106068;1271;25298;-50
2022/08/19 02:07:14;;;;;;;16.50;5.80;;;;;;;22.91;64.80;99470.33;106180;1270;22613;-50
2022/08/19 02:09:45;;;;;;;12.30;5.30;;;;;;;22.84;64.93;99469.90;106215;1269;22785;-49
2022/08/19 02:12:17;;;;;;;11.50;5.30;;;;;;;22.79;65.04;99475.63;106184;1270;25480;-51
2022/08/19 02:14:48;;;;;;;17.70;6.10;;;;;;;22.74;65.13;99476.40;106318;1270;25080;-53
2022/08/19 02:17:20;;;;;;;13.10;5.30;;;;;;;22.69;65.39;99477.42;106231;1270;24276;-51
2022/08/19 02:19:51;;;;;;;10.70;4.70;;;;;;;22.64;65.48;99476.17;106103;1271;24350;-49
2022/08/19 02:22:25;;;;;;;14.00;6.30;;;;;;;22.60;65.43;99467.10;106103;1270;22570;-53
2022/08/19 02:24:57;;;;;;;12.00;5.40;;;;;;;22.57;65.58;99457.77;105901;1271;22543;-49
2022/08/19 02:27:29;;;;;;;12.50;5.00;;;;;;;22.55;65.65;99452.31;105999;1270;22755;-50
2022/08/19 02:30:00;;;;;;;15.80;5.90;;;;;;;22.52;65.74;99455.61;105827;1270;26619;-52
2022/08/19 02:32:33;;;;;;;14.10;6.00;;;;;;;22.47;65.83;99456.52;105832;1270;22608;-48
2022/08/19 02:35:05;;;;;;;14.90;6.30;;;;;;;22.42;65.90;99457.17;106207;1271;25390;-49
2022/08/19 02:40:26;;;;;;;18.40;6.30;;;;;;;22.30;66.23;99453.16;106019;1270;23365;-49
2022/08/19 02:42:58;;;;;;;14.10;6.20;;;;;;;22.26;66.34;99444.69;106035;1271;24691;-48
2022/08/19 02:45:34;;;;;;;12.00;5.70;;;;;;;22.22;66.46;99439.49;106046;1271;22681;-51
2022/08/19 02:48:08;;;;;;;13.30;6.50;;;;;;;22.17;66.63;99441.08;106328;1270;26612;-48
2022/08/19 02:50:42;;;;;;;13.50;6.40;;;;;;;22.13;66.76;99445.36;106036;1270;25510;-51
2022/08/19 02:53:13;;;;;;;12.70;5.90;;;;;;;22.06;66.87;99450.51;106213;1270;24190;-50
2022/08/19 02:55:49;;;;;;;13.60;6.50;;;;;;;22.03;66.93;99448.64;106160;1269;22536;-51
2022/08/19 02:58:22;;;;;;;13.60;5.50;;;;;;;21.99;66.99;99445.70;106045;1271;24431;-51
2022/08/19 03:00:57;;;;;;;12.50;5.90;;;;;;;21.94;67.19;99447.70;105950;1270;22791;-51
2022/08/19 03:03:29;;;;;;;13.20;6.00;;;;;;;21.88;67.25;99446.17;106162;1270;22547;-49
2022/08/19 03:06:11;;;;;;;13.60;6.00;;;;;;;21.83;67.49;99441.22;106095;1271;22522;-51
2022/08/19 03:08:45;;;;;;;12.10;5.70;;;;;;;21.81;67.48;99437.71;106060;1269;24367;-49
2022/08/19 03:11:19;;;;;;;13.40;6.20;;;;;;;21.79;67.67;99440.75;106053;1271;22542;-52
2022/08/19 03:13:53;;;;;;;15.20;6.60;;;;;;;21.74;67.79;99437.14;106154;1270;22632;-49
2022/08/19 03:16:27;;;;;;;17.90;6.40;;;;;;;21.70;67.91;99444.27;105940;1270;24540;-52
2022/08/19 03:19:00;;;;;;;15.90;6.00;;;;;;;21.67;67.97;99456.20;106068;1270;25347;-50
2022/08/19 03:21:34;;;;;;;15.00;5.90;;;;;;;21.63;68.26;99471.17;105957;1270;22568;-49
2022/08/19 03:24:08;;;;;;;13.70;5.50;;;;;;;21.56;68.39;99483.20;105972;1270;22530;-49
2022/08/19 03:26:44;;;;;;;12.00;6.00;;;;;;;21.50;68.61;99487.65;106097;1270;26191;-51
2022/08/19 03:29:17;;;;;;;14.10;5.60;;;;;;;21.46;68.74;99489.64;106229;1270;25337;-51
2022/08/19 03:31:50;;;;;;;13.20;5.80;;;;;;;21.41;68.69;99487.11;106070;1271;25254;-54
2022/08/19 03:34:26;;;;;;;13.50;7.00;;;;;;;21.38;68.87;99484.55;106243;1270;22548;-50
2022/08/19 03:36:59;;;;;;;16.00;6.90;;;;;;;21.36;68.96;99483.07;106019;1271;24392;-52
2022/08/19 03:39:31;;;;;;;15.60;7.10;;;;;;;21.35;69.11;99482.81;105983;1270;25473;-49
2022/08/19 03:42:03;;;;;;;14.90;6.20;;;;;;;21.31;69.17;99480.09;105991;1271;22558;-50
2022/08/19 03:44:37;;;;;;;14.00;6.80;;;;;;;21.26;69.33;99479.65;106048;1271;22550;-49
2022/08/19 03:47:09;;;;;;;16.40;6.90;;;;;;;21.24;69.57;99478.98;106113;1271;22522;-49
2022/08/19 03:49:41;;;;;;;18.60;8.30;;;;;;;21.20;69.65;99481.37;105978;1270;22528;-52
2022/08/19 03:52:12;;;;;;;17.00;7.00;;;;;;;21.15;69.78;99479.91;106133;1271;22820;-50
2022/08/19 03:54:44;;;;;;;17.30;7.20;;;;;;;21.11;70.05;99480.63;106298;1270;22778;-49
2022/08/19 03:57:16;;;;;;;18.60;7.30;;;;;;;21.05;70.15;99481.41;106114;1271;26640;-51
2022/08/19 03:59:47;;;;;;;14.50;6.40;;;;;;;21.01;70.20;99487.94;106122;1270;24431;-49
2022/08/19 04:02:20;;;;;;;16.20;7.10;;;;;;;20.97;70.39;99488.73;106069;1271;22774;-50
2022/08/19 04:04:54;;;;;;;17.40;7.10;;;;;;;20.93;70.73;99492.44;106159;1270;23288;-51
2022/08/19 04:07:25;;;;;;;18.20;7.10;;;;;;;20.88;70.71;99497.09;105996;1270;22708;-52
2022/08/19 04:09:57;;;;;;;21.70;8.40;;;;;;;20.85;70.92;99502.17;106089;1270;24205;-49
2022/08/19 04:12:30;;;;;;;20.50;7.70;;;;;;;20.83;71.09;99508.64;106048;1271;22540;-50
2022/08/19 04:15:02;;;;;;;16.50;7.70;;;;;;;20.82;71.03;99505.30;106113;1271;22547;-50
2022/08/19 04:17:33;;;;;;;19.00;8.00;;;;;;;20.82;71.15;99499.67;106095;1271;22758;-49
2022/08/19 04:20:07;;;;;;;23.90;8.70;;;;;;;20.84;71.28;99502.35;106306;1271;24299;-51
2022/08/19 04:22:38;;;;;;;16.50;7.30;;;;;;;20.84;71.52;99506.10;106052;1270;22609;-49
2022/08/19 04:25:11;;;;;;;17.50;8.20;;;;;;;20.86;71.77;99512.60;106016;1271;23093;-49
2022/08/19 04:27:46;;;;;;;18.20;8.30;;;;;;;20.87;71.87;99514.60;106196;1269;22629;-50
2022/08/19 04:30:19;;;;;;;18.30;8.20;;;;;;;20.90;72.16;99515.27;106136;1271;22779;-49
2022/08/19 04:32:50;;;;;;;20.60;9.00;;;;;;;20.92;72.34;99514.64;106121;1270;24225;-49
2022/08/19 04:35:22;;;;;;;18.30;8.60;;;;;;;20.95;72.37;99513.20;106066;1270;22581;-51
2022/08/19 04:37:54;;;;;;;17.90;9.30;;;;;;;20.99;72.47;99514.60;106076;1271;25550;-50
2022/08/19 04:43:14;;;;;;;19.70;9.20;;;;;;;21.10;72.80;99509.32;109741;1270;22692;-51
2022/08/19 04:45:46;;;;;;;18.50;8.50;;;;;;;21.15;72.93;99508.52;106014;1270;24438;-53
2022/08/19 04:48:26;;;;;;;18.50;8.50;;;;;;;21.20;73.16;99511.70;106995;1270;24446;-52
2022/08/19 04:50:59;;;;;;;21.20;8.90;;;;;;;21.25;73.17;99508.65;106089;1271;22983;-53
2022/08/19 04:53:32;;;;;;;16.90;9.30;;;;;;;21.32;73.39;99508.79;106097;1271;25057;-50
2022/08/19 04:56:08;;;;;;;19.30;8.90;;;;;;;21.38;73.42;99511.27;106086;1270;24407;-53
2022/08/19 04:58:43;;;;;;;18.80;9.80;;;;;;;21.45;73.60;99512.05;106064;1270;24438;-53
2022/08/19 05:01:21;;;;;;;22.20;9.50;;;;;;;21.51;73.65;99503.89;106000;1270;25387;-50
2022/08/19 05:03:53;;;;;;;20.20;8.80;;;;;;;21.56;73.69;99500.44;105988;1271;25261;-51
2022/08/19 05:06:25;;;;;;;20.00;9.30;;;;;;;21.62;73.69;99493.25;106099;1271;25337;-52
2022/08/19 05:08:57;;;;;;;19.10;8.70;;;;;;;21.67;73.74;99483.07;106285;1269;25850;-50
2022/08/19 05:11:31;;;;;;;18.40;9.70;;;;;;;21.73;74.07;99479.76;106345;1270;22698;-50
2022/08/19 05:14:02;;;;;;;20.40;10.30;;;;;;;21.79;73.88;99486.06;106049;1271;24393;-50
2022/08/19 05:16:34;;;;;;;19.80;10.60;;;;;;;21.83;74.08;99494.02;106089;1271;25642;-51
2022/08/19 05:24:45;;;;;;;19.90;9.10;;;;;;;21.97;74.29;99491.76;106172;1269;22530;-49
2022/08/19 05:27:16;;;;;;;21.20;9.80;;;;;;;22.02;74.38;99492.76;106055;1271;24217;-51
2022/08/19 05:29:48;;;;;;;19.00;9.80;;;;;;;22.08;74.37;99494.56;105968;1270;24270;-49
2022/08/19 05:32:21;;;;;;;24.40;10.00;;;;;;;22.13;74.29;99489.33;105897;1270;24229;-52
2022/08/19 05:34:53;;;;;;;23.40;9.60;;;;;;;22.19;74.22;99488.02;106997;1269;25363;-53
2022/08/19 05:37:27;;;;;;;20.10;9.90;;;;;;;22.25;74.14;99488.83;105740;1270;24064;-49
2022/08/19 05:39:58;;;;;;;20.00;10.00;;;;;;;22.32;74.27;99492.43;107098;1270;22543;-51
2022/08/19 05:42:30;;;;;;;20.50;10.60;;;;;;;22.38;74.14;99495.95;105934;1271;22606;-50
2022/08/19 05:45:01;;;;;;;18.50;9.20;;;;;;;22.43;74.10;99507.21;105965;1271;22544;-48
2022/08/19 05:47:33;;;;;;;21.70;10.00;;;;;;;22.49;73.86;99510.40;105781;1270;22531;-52
2022/08/19 05:50:05;;;;;;;22.30;10.00;;;;;;;22.55;73.97;99512.92;106177;1269;25232;-49
2022/08/19 05:52:37;;;;;;;22.10;10.40;;;;;;;22.62;73.81;99505.77;106052;1271;25313;-49
2022/08/19 05:55:10;;;;;;;21.50;10.10;;;;;;;22.66;73.78;99498.54;106053;1270;24319;-53
2022/08/19 05:57:44;;;;;;;23.50;10.10;;;;;;;22.72;73.67;99497.00;106120;1271;22528;-51
2022/08/19 06:00:17;;;;;;;22.20;10.70;;;;;;;22.77;73.70;99496.17;106132;1270;25320;-51
2022/08/19 06:02:49;;;;;;;20.50;10.10;;;;;;;22.82;73.70;99498.22;106016;1270;23079;-51
2022/08/19 06:05:21;;;;;;;24.30;9.90;;;;;;;22.89;73.63;99501.34;106144;1270;25239;-49
2022/08/19 06:07:53;;;;;;;19.50;10.00;;;;;;;22.96;73.54;99504.92;106107;1271;25531;-49
2022/08/19 06:10:25;;;;;;;21.10;9.80;;;;;;;23.02;73.56;99509.16;106115;1270;22620;-52
2022/08/19 06:12:56;;;;;;;20.30;9.70;;;;;;;23.08;73.48;99512.52;106135;1270;22541;-51
2022/08/19 06:15:28;;;;;;;17.80;9.20;;;;;;;23.12;73.13;99522.95;105921;1270;22548;-49
2022/08/19 06:18:00;;;;;;;21.60;9.50;;;;;;;23.17;73.22;99530.35;106430;1270;24421;-54
2022/08/19 06:20:32;;;;;;;21.40;9.50;;;;;;;23.22;73.07;99540.36;106195;1271;26531;-53
2022/08/19 06:23:04;;;;;;;17.30;9.60;;;;;;;23.27;73.20;99549.16;106178;1270;25222;-50
2022/08/19 06:25:36;;;;;;;19.10;9.70;;;;;;;23.31;73.01;99553.80;106066;1270;22561;-52
2022/08/19 06:28:07;;;;;;;20.20;10.00;;;;;;;23.37;72.82;99557.23;106404;1270;22544;-49
2022/08/19 06:30:41;;;;;;;23.30;9.70;;;;;;;23.42;72.71;99560.79;106190;1271;22601;-50
2022/08/19 06:33:13;;;;;;;17.30;9.10;;;;;;;23.46;72.51;99567.16;106052;1271;22521;-51
2022/08/19 06:35:44;;;;;;;17.20;9.50;;;;;;;23.50;72.48;99558.95;105957;1271;22690;-53
2022/08/19 06:38:16;;;;;;;19.80;9.30;;;;;;;23.55;72.25;99558.38;105991;1271;22527;-51
2022/08/19 06:40:49;;;;;;;18.10;9.10;;;;;;;23.61;72.27;99569.83;106125;1270;25483;-53
2022/08/19 06:43:22;;;;;;;17.30;8.70;;;;;;;23.67;72.43;99576.59;106177;1269;22535;-50
2022/08/19 06:45:53;;;;;;;18.20;9.80;;;;;;;23.74;72.28;99580.91;106126;1271;25356;-52
2022/08/19 06:48:26;;;;;;;19.50;8.40;;;;;;;23.81;72.10;99584.88;106089;1270;23332;-53
2022/08/19 06:50:57;;;;;;;19.70;8.90;;;;;;;23.88;71.83;99595.85;106056;1271;22842;-53
2022/08/19 06:53:29;;;;;;;22.50;9.90;;;;;;;23.93;71.32;99602.88;105977;1271;24236;-53
2022/08/19 06:56:02;;;;;;;19.60;8.90;;;;;;;24.00;71.38;99607.01;106144;1270;24425;-50
2022/08/19 06:58:34;;;;;;;17.90;8.50;;;;;;;24.07;71.28;99607.66;106146;1271;22522;-50
2022/08/19 07:01:08;;;;;;;21.70;9.40;;;;;;;24.16;71.16;99613.88;106017;1270;24255;-54
2022/08/19 07:03:41;;;;;;;18.40;9.60;;;;;;;24.24;71.00;99613.13;106091;1271;22564;-52
2022/08/19 07:06:17;;;;;;;21.30;9.20;;;;;;;24.32;70.70;99616.76;106581;1265;26510;-65
2022/08/19 07:08:50;;;;;;;21.50;9.30;;;;;;;24.40;70.70;99620.91;106080;1270;22614;-65
2022/08/19 07:11:22;;;;;;;18.00;8.00;;;;;;;24.50;70.06;99622.66;105925;1270;25474;-65
2022/08/19 07:13:55;;;;;;;18.40;8.90;;;;;;;24.57;69.81;99618.58;106032;1270;22562;-65
2022/08/19 07:16:27;;;;;;;15.90;8.60;;;;;;;24.64;69.61;99609.22;106329;1270;24460;-65
2022/08/19 07:19:02;;;;;;;19.30;8.10;;;;;;;24.69;69.43;99611.80;105967;1270;24425;-65
2022/08/19 07:21:37;;;;;;;16.90;8.30;;;;;;;24.75;69.38;99617.48;105910;1270;22548;-64
2022/08/19 07:24:12;;;;;;;15.80;7.80;;;;;;;24.85;68.99;99620.84;99822;1270;8577630;-65
2022/08/19 07:26:47;;;;;;;18.00;9.10;;;;;;;24.95;68.32;99625.00;105918;1270;22544;-65
2022/08/19 07:29:22;;;;;;;14.80;7.50;;;;;;;25.03;68.39;99632.10;106043;1270;23016;-65
2022/08/19 07:31:56;;;;;;;20.40;7.60;;;;;;;25.15;68.36;99643.72;105944;1270;24342;-65
2022/08/19 07:34:29;;;;;;;17.40;7.60;;;;;;;25.25;67.41;99647.52;105907;1270;25344;-66
2022/08/19 07:37:02;;;;;;;16.90;7.10;;;;;;;25.35;67.64;99647.77;105926;1270;22619;-65
2022/08/19 07:39:37;;;;;;;18.20;7.20;;;;;;;25.45;67.47;99649.30;106036;1270;22554;-66
2022/08/19 07:42:11;;;;;;;16.40;6.20;;;;;;;25.55;67.09;99651.08;105925;1270;25489;-65
2022/08/19 07:44:44;;;;;;;15.40;6.60;;;;;;;25.67;66.52;99651.67;106052;1270;22547;-66
2022/08/19 07:47:16;;;;;;;15.90;7.10;;;;;;;25.75;66.07;99651.88;106086;1270;25930;-65
2022/08/19 07:49:48;;;;;;;17.70;6.10;;;;;;;25.83;65.67;99644.02;106178;1270;22567;-65
2022/08/19 07:52:22;;;;;;;16.20;8.40;;;;;;;25.90;65.46;99644.96;106094;1270;23054;-66
2022/08/19 07:54:54;;;;;;;16.10;7.00;;;;;;;25.96;64.84;99642.89;105962;1270;22569;-67
2022/08/19 07:57:26;;;;;;;17.60;6.00;;;;;;;26.04;64.99;99640.46;105902;1270;22529;-65
2022/08/19 07:59:58;;;;;;;15.10;6.60;;;;;;;26.13;64.56;99643.77;105994;1270;22647;-67
2022/08/19 08:02:29;;;;;;;15.00;5.80;;;;;;;26.22;64.27;99643.68;106275;1270;24295;-66
2022/08/19 08:10:39;;;;;;;;;;;;;;;26.58;63.48;99652.17;106059;1271;22525;-66
2022/08/19 08:13:11;;;;;;;19.40;6.40;;;;;;;26.70;63.36;99656.07;106148;1271;22525;-67
2022/08/19 08:15:45;;;;;;;13.10;6.30;;;;;;;26.78;62.28;99665.27;106095;1271;22525;-65
2022/08/19 08:18:17;;;;;;;9.70;4.80;;;;;;;26.80;62.15;99665.75;106027;1270;25345;-66
2022/08/19 08:20:48;;;;;;;13.30;5.40;;;;;;;26.84;61.89;99667.03;106139;1269;25484;-66
2022/08/19 08:23:24;;;;;;;15.40;6.00;;;;;;;26.87;61.72;99674.29;106046;1271;22698;-65
2022/08/19 08:25:58;;;;;;;17.00;8.20;;;;;;;26.91;61.36;99680.40;106211;1270;25177;-66
2022/08/19 08:28:31;;;;;;;18.20;5.80;;;;;;;26.93;60.91;99681.34;106356;1271;23336;-66
2022/08/19 08:31:09;;;;;;;13.80;6.40;;;;;;;26.96;61.02;99679.90;106285;1271;24786;-66
2022/08/19 08:33:43;;;;;;;12.80;5.20;;;;;;;27.01;60.51;99674.86;106024;1271;24228;-66
2022/08/19 08:36:17;;;;;;;18.80;6.20;;;;;;;27.04;59.65;99677.05;105790;1270;24266;-66
2022/08/19 08:38:50;;;;;;;14.40;5.40;;;;;;;27.02;59.56;99669.77;106064;1270;25301;-66
2022/08/19 08:41:28;;;;;;;14.50;5.60;;;;;;;27.03;59.06;99670.86;106069;1271;22529;-66
2022/08/19 08:44:02;;;;;;;13.70;5.40;;;;;;;27.08;58.97;99666.66;106104;1270;22564;-66
2022/08/19 08:46:41;;;;;;;16.80;5.90;;;;;;;27.14;58.90;99667.94;106150;1270;22544;-66
2022/08/19 08:49:18;;;;;;;;;;;;;;;27.22;58.84;99664.08;106103;1271;22525;-66
2022/08/19 08:51:54;;;;;;;81.00;43.90;;;;;;;27.28;58.36;99658.02;106079;1271;22608;-66
2022/08/19 08:54:31;;;;;;;128.40;70.20;;;;;;;27.37;58.83;99654.22;106022;1271;22530;-66
2022/08/19 08:57:09;;;;;;;71.10;35.80;;;;;;;27.47;58.10;99656.79;106310;1271;25319;-66
2022/08/19 08:59:44;;;;;;;32.90;16.00;;;;;;;27.55;57.84;99652.77;106071;1271;23816;-66
2022/08/19 09:02:16;;;;;;;23.20;9.20;;;;;;;27.62;57.14;99660.43;106124;1270;22528;-66
2022/08/19 09:04:48;;;;;;;17.50;7.10;;;;;;;27.65;57.12;99648.58;106108;1271;27509;-66
2022/08/19 09:07:43;;;;;;;18.20;7.50;;;;;;;27.72;56.79;99646.76;106026;1271;25485;-67
2022/08/19 09:10:24;;;;;;;16.70;6.40;;;;;;;27.77;56.67;99637.51;106060;1268;25602;-66
2022/08/19 09:13:10;;;;;;;18.70;6.10;;;;;;;27.85;56.23;99629.42;106313;1268;24375;-66
2022/08/19 09:15:50;;;;;;;14.30;5.90;;;;;;;27.87;55.77;99616.84;106099;1268;22519;-66
2022/08/19 09:18:20;;;;;;;;;;;;;;;27.88;55.26;99623.73;106106;1268;22603;-66
2022/08/19 09:20:52;;;;;;;17.80;5.40;;;;;;;27.86;55.35;99639.84;106064;1268;22610;-67
2022/08/19 09:23:24;;;;;;;16.50;6.90;;;;;;;27.90;55.22;99649.69;106426;1268;22528;-67
2022/08/19 09:25:56;;;;;;;14.40;5.10;;;;;;;27.95;55.06;99654.79;106175;1268;22614;-66
2022/08/19 09:28:31;;;;;;;16.70;5.20;;;;;;;28.02;55.18;99650.23;105889;1270;22687;-67
2022/08/19 09:31:03;;;;;;;13.50;5.00;;;;;;;28.11;54.95;99648.67;106112;1270;24439;-67
2022/08/19 09:33:36;;;;;;;12.80;4.70;;;;;;;28.20;54.61;99645.42;106141;1271;24255;-66
2022/08/19 09:36:12;;;;;;;12.50;4.90;;;;;;;28.26;54.58;99641.39;106083;1268;24162;-66
2022/08/19 09:38:45;;;;;;;12.90;5.20;;;;;;;28.30;53.85;99640.60;106091;1268;24088;-66
2022/08/19 09:41:19;;;;;;;13.10;5.10;;;;;;;28.35;54.51;99644.54;105888;1268;22650;-66
2022/08/19 09:43:55;;;;;;;15.40;4.90;;;;;;;28.46;53.80;99643.30;106123;1268;24261;-66
2022/08/19 09:46:30;;;;;;;16.90;5.40;;;;;;;28.52;53.47;99640.39;106015;1271;26208;-66
2022/08/19 09:49:05;;;;;;;15.50;4.70;;;;;;;28.60;53.59;99637.19;106049;1270;24371;-67
2022/08/19 09:51:37;;;;;;;14.40;4.80;;;;;;;28.73;53.61;99636.85;105964;1270;22540;-67
2022/08/19 09:54:09;;;;;;;11.30;3.60;;;;;;;28.85;53.33;99634.92;106330;1270;22538;-67
2022/08/19 09:56:41;;;;;;;11.50;3.80;;;;;;;29.00;52.53;99635.30;106116;1271;23771;-67
2022/08/19 09:59:14;;;;;;;12.00;3.60;;;;;;;29.12;52.24;99637.89;106177;1270;25548;-67
2022/08/19 10:01:45;;;;;;;9.90;3.20;;;;;;;29.23;51.86;99638.80;106151;1270;22903;-66
2022/08/19 10:04:18;;;;;;;8.40;3.00;;;;;;;29.33;51.01;99635.66;106099;1271;25365;-66
2022/08/19 10:06:51;;;;;;;10.90;2.60;;;;;;;29.47;50.79;99637.23;106230;1271;23314;-66
2022/08/19 10:09:24;;;;;;;12.00;3.00;;;;;;;29.60;49.93;99635.77;106123;1271;25242;-66
2022/08/19 10:11:55;;;;;;;9.50;3.10;;;;;;;29.74;49.57;99638.44;106155;1268;22551;-66
2022/08/19 10:14:28;;;;;;;8.80;2.90;;;;;;;29.87;49.47;99639.41;106154;1268;25318;-67
2022/08/19 10:17:02;;;;;;;8.40;2.60;;;;;;;29.98;49.23;99641.75;106181;1268;25679;-67
2022/08/19 10:19:36;;;;;;;7.90;2.70;;;;;;;30.04;48.79;99636.80;106082;1271;22765;-67
2022/08/19 10:22:14;;;;;;;10.70;3.10;;;;;;;30.10;48.68;99641.66;106069;1271;22675;-68
2022/08/19 10:24:47;;;;;;;9.50;2.50;;;;;;;30.21;48.68;99641.98;106048;1271;24269;-67
2022/08/19 10:27:20;;;;;;;8.40;2.40;;;;;;;30.29;48.20;99641.15;106100;1271;22613;-68
2022/08/19 10:29:52;;;;;;;9.60;3.00;;;;;;;30.37;47.81;99637.73;106126;1271;23095;-68
2022/08/19 10:32:27;;;;;;;9.60;2.50;;;;;;;30.46;47.86;99633.48;106001;1271;24224;-68
2022/08/19 10:35:00;;;;;;;7.60;2.60;;;;;;;30.52;47.63;99632.70;106170;1271;25516;-68
2022/08/19 10:37:32;;;;;;;10.80;2.70;;;;;;;30.57;47.24;99626.52;106226;1270;25850;-68
2022/08/19 10:40:07;;;;;;;10.40;3.60;;;;;;;30.63;46.76;99626.84;106147;1268;22568;-68
2022/08/19 10:42:39;;;;;;;9.70;2.80;;;;;;;30.72;47.14;99621.88;106395;1268;24389;-68
2022/08/19 10:45:12;;;;;;;9.00;2.30;;;;;;;30.80;46.81;99622.91;106340;1268;24408;-68
2022/08/19 10:47:44;;;;;;;7.10;2.40;;;;;;;30.87;46.48;99621.43;106115;1268;24373;-68
2022/08/19 10:53:11;;;;;;;8.90;3.30;;;;;;;31.01;45.90;99628.30;105885;1270;22691;-68
2022/08/19 10:58:33;;;;;;;10.40;2.40;;;;;;;31.21;45.20;99625.30;105885;1274;25310;-68
2022/08/19 11:01:07;;;;;;;11.80;2.80;;;;;;;31.27;45.64;99623.08;105842;1273;22544;-68
2022/08/19 11:03:39;;;;;;;14.20;2.10;;;;;;;31.34;45.11;99628.75;105576;1274;22537;-68
2022/08/19 11:06:13;;;;;;;9.70;2.60;;;;;;;31.42;44.01;99627.05;105569;1274;22540;-68
2022/08/19 11:08:45;;;;;;;8.30;2.00;;;;;;;31.47;44.25;99626.63;105532;1274;22553;-69
2022/08/19 11:11:22;;;;;;;11.10;2.50;;;;;;;31.52;44.10;99631.62;105650;1274;24442;-68
2022/08/19 11:13:55;;;;;;;8.70;2.40;;;;;;;31.58;43.64;99631.80;105743;1274;25498;-68
2022/08/19 11:16:31;;;;;;;7.90;2.20;;;;;;;31.61;43.62;99625.32;105636;1274;24321;-68
2022/08/19 11:19:08;;;;;;;9.10;2.30;;;;;;;31.58;43.54;99624.14;105811;1274;25367;-68
2022/08/19 11:21:44;;;;;;;9.70;2.60;;;;;;;31.52;43.31;99617.65;105520;1274;25379;-68
2022/08/19 11:24:19;;;;;;;7.70;2.20;;;;;;;31.49;43.26;99617.88;105829;1273;26557;-69
2022/08/19 11:26:57;;;;;;;7.20;1.80;;;;;;;31.49;43.16;99622.69;105546;1274;22694;-67
2022/08/19 11:29:29;;;;;;;8.30;1.90;;;;;;;31.56;43.16;99632.41;105432;1274;23422;-67
2022/08/19 11:32:01;;;;;;;7.30;2.10;;;;;;;31.63;42.98;99630.48;105540;1274;25611;-68
2022/08/19 11:34:33;;;;;;;9.00;3.30;;;;;;;31.72;43.13;99629.95;105663;1274;24352;-68
2022/08/19 11:37:05;;;;;;;11.10;2.90;;;;;;;31.79;43.00;99626.09;105808;1270;22528;-68
2022/08/19 11:39:38;;;;;;;10.70;2.50;;;;;;;31.80;42.60;99624.73;105988;1271;24179;-68
2022/08/19 11:45:00;;;;;;;9.40;1.90;;;;;;;31.81;42.11;99634.61;105943;1270;24336;-68
2022/08/19 11:47:32;;;;;;;7.40;1.90;;;;;;;31.82;42.00;99637.39;105984;1268;22540;-67
2022/08/19 11:50:05;;;;;;;6.60;1.70;;;;;;;31.84;41.92;99638.95;106049;1268;23337;-68
2022/08/19 11:52:38;;;;;;;11.90;2.00;;;;;;;31.86;41.23;99642.77;106056;1268;22538;-69
2022/08/19 11:55:12;;;;;;;5.40;1.40;;;;;;;31.83;40.65;99646.14;106217;1268;22550;-68
2022/08/19 11:57:44;;;;;;;6.70;1.30;;;;;;;31.80;40.48;99644.22;106285;1271;26332;-69
2022/08/19 12:00:17;;;;;;;7.70;1.40;;;;;;;31.81;40.23;99645.58;106053;1268;22549;-69
2022/08/19 12:02:49;;;;;;;3.60;1.00;;;;;;;31.88;40.07;99640.74;106105;1268;24440;-68
2022/08/19 12:05:21;;;;;;;6.50;1.30;;;;;;;31.97;39.89;99636.47;106153;1268;22683;-69
2022/08/19 12:07:54;;;;;;;6.10;1.00;;;;;;;32.06;39.08;99636.61;106143;1268;24274;-68
2022/08/19 12:10:26;;;;;;;6.30;1.70;;;;;;;32.13;38.53;99635.55;106174;1268;25538;-68
2022/08/19 12:12:58;;;;;;;5.80;1.60;;;;;;;32.19;38.87;99631.36;106074;1268;22540;-69